sensor_id;sensor_type;location;lat;lon;timestamp;P1;durP1;ratioP1;P2;durP2;ratioP2
5345;SDS011;2695;49.444;11.054;2023-01-19T00:01:25;14.70;;;8.87;;
5345;SDS011;2695;49.444;11.054;2023-01-19T00:03:53;22.30;;;9.37;;
5345;SDS011;2695;49.444;11.054;2023-01-19T00:06:21;14.90;;;8.87;;
5345;SDS011;2695;49.444;11.054;2023-01-19T00:08:50;16.87;;;8.70;;
5345;SDS011;2695;49.444;11.054;2023-01-19T00:11:19;13.67;;;8.37;;
5345;SDS011;2695;49.444;11.054;2023-01-19T00:13:48;22.77;;;8.43;;
5345;SDS011;2695;49.444;11.054;2023-01-19T00:16:16;14.27;;;8.40;;
5345;SDS011;2695;49.444;11.054;2023-01-19T00:18:47;10.63;;;7.63;;
5345;SDS011;2695;49.444;11.054;2023-01-19T00:21:16;12.57;;;8.03;;
5345;SDS011;2695;49.444;11.054;2023-01-19T00:23:45;13.23;;;7.73;;
5345;SDS011;2695;49.444;11.054;2023-01-19T00:26:13;15.00;;;7.77;;
5345;SDS011;2695;49.444;11.054;2023-01-19T00:28:42;15.80;;;8.90;;
5345;SDS011;2695;49.444;11.054;2023-01-19T00:31:11;15.37;;;8.73;;
5345;SDS011;2695;49.444;11.054;2023-01-19T00:33:39;15.00;;;8.93;;
5345;SDS011;2695;49.444;11.054;2023-01-19T00:36:08;16.10;;;8.97;;
5345;SDS011;2695;49.444;11.054;2023-01-19T00:38:36;13.03;;;8.20;;
5345;SDS011;2695;49.444;11.054;2023-01-19T00:41:05;13.63;;;9.00;;
5345;SDS011;2695;49.444;11.054;2023-01-19T00:43:33;15.27;;;9.40;;
5345;SDS011;2695;49.444;11.054;2023-01-19T00:46:01;15.40;;;9.33;;
5345;SDS011;2695;49.444;11.054;2023-01-19T00:48:30;17.43;;;10.07;;
5345;SDS011;2695;49.444;11.054;2023-01-19T00:50:58;15.70;;;9.83;;
5345;SDS011;2695;49.444;11.054;2023-01-19T00:53:26;17.87;;;9.30;;
5345;SDS011;2695;49.444;11.054;2023-01-19T00:55:57;20.73;;;9.50;;
5345;SDS011;2695;49.444;11.054;2023-01-19T00:58:25;17.60;;;9.87;;
5345;SDS011;2695;49.444;11.054;2023-01-19T01:00:53;17.77;;;9.07;;
5345;SDS011;2695;49.444;11.054;2023-01-19T01:03:23;19.00;;;9.97;;
5345;SDS011;2695;49.444;11.054;2023-01-19T01:05:54;18.10;;;11.80;;
5345;SDS011;2695;49.444;11.054;2023-01-19T01:08:22;17.63;;;8.97;;
5345;SDS011;2695;49.444;11.054;2023-01-19T01:10:50;16.00;;;10.13;;
5345;SDS011;2695;49.444;11.054;2023-01-19T01:13:18;16.60;;;9.63;;
5345;SDS011;2695;49.444;11.054;2023-01-19T01:15:50;17.53;;;9.83;;
5345;SDS011;2695;49.444;11.054;2023-01-19T01:18:19;17.10;;;9.00;;
5345;SDS011;2695;49.444;11.054;2023-01-19T01:20:48;16.47;;;10.10;;
5345;SDS011;2695;49.444;11.054;2023-01-19T01:23:17;16.30;;;11.13;;
5345;SDS011;2695;49.444;11.054;2023-01-19T01:25:48;17.03;;;10.63;;
5345;SDS011;2695;49.444;11.054;2023-01-19T01:28:16;16.20;;;10.20;;
5345;SDS011;2695;49.444;11.054;2023-01-19T01:30:44;18.00;;;10.77;;
5345;SDS011;2695;49.444;11.054;2023-01-19T01:33:13;20.57;;;10.70;;
5345;SDS011;2695;49.444;11.054;2023-01-19T01:36:01;18.03;;;10.87;;
5345;SDS011;2695;49.444;11.054;2023-01-19T01:38:30;20.47;;;10.37;;
5345;SDS011;2695;49.444;11.054;2023-01-19T01:40:58;17.10;;;10.87;;
5345;SDS011;2695;49.444;11.054;2023-01-19T01:43:39;21.10;;;11.43;;
5345;SDS011;2695;49.444;11.054;2023-01-19T01:46:09;20.37;;;11.73;;
5345;SDS011;2695;49.444;11.054;2023-01-19T01:48:40;20.17;;;10.20;;
5345;SDS011;2695;49.444;11.054;2023-01-19T01:51:13;21.23;;;10.10;;
5345;SDS011;2695;49.444;11.054;2023-01-19T01:53:53;19.33;;;10.20;;
5345;SDS011;2695;49.444;11.054;2023-01-19T01:56:28;19.47;;;10.53;;
5345;SDS011;2695;49.444;11.054;2023-01-19T01:59:00;17.47;;;10.20;;
5345;SDS011;2695;49.444;11.054;2023-01-19T02:01:31;22.37;;;10.60;;
5345;SDS011;2695;49.444;11.054;2023-01-19T02:04:16;19.23;;;10.10;;
5345;SDS011;2695;49.444;11.054;2023-01-19T02:06:46;18.00;;;10.43;;
5345;SDS011;2695;49.444;11.054;2023-01-19T02:09:34;15.97;;;10.07;;
5345;SDS011;2695;49.444;11.054;2023-01-19T02:12:21;20.53;;;10.53;;
5345;SDS011;2695;49.444;11.054;2023-01-19T02:15:17;17.83;;;10.97;;
5345;SDS011;2695;49.444;11.054;2023-01-19T02:17:46;17.63;;;10.30;;
5345;SDS011;2695;49.444;11.054;2023-01-19T02:20:15;21.63;;;11.47;;
5345;SDS011;2695;49.444;11.054;2023-01-19T02:22:45;18.33;;;10.20;;
5345;SDS011;2695;49.444;11.054;2023-01-19T02:25:17;19.83;;;10.20;;
5345;SDS011;2695;49.444;11.054;2023-01-19T02:27:45;18.60;;;10.73;;
5345;SDS011;2695;49.444;11.054;2023-01-19T02:30:15;22.37;;;11.80;;
5345;SDS011;2695;49.444;11.054;2023-01-19T02:32:44;16.03;;;9.83;;
5345;SDS011;2695;49.444;11.054;2023-01-19T02:35:12;20.73;;;10.00;;
5345;SDS011;2695;49.444;11.054;2023-01-19T02:37:40;17.23;;;10.20;;
5345;SDS011;2695;49.444;11.054;2023-01-19T02:40:09;19.50;;;11.00;;
5345;SDS011;2695;49.444;11.054;2023-01-19T02:42:42;16.53;;;10.83;;
5345;SDS011;2695;49.444;11.054;2023-01-19T02:45:16;17.63;;;10.20;;
5345;SDS011;2695;49.444;11.054;2023-01-19T02:47:46;17.20;;;10.53;;
5345;SDS011;2695;49.444;11.054;2023-01-19T02:50:34;18.77;;;10.00;;
5345;SDS011;2695;49.444;11.054;2023-01-19T02:53:09;19.57;;;10.43;;
5345;SDS011;2695;49.444;11.054;2023-01-19T02:56:06;17.73;;;9.87;;
5345;SDS011;2695;49.444;11.054;2023-01-19T02:58:53;13.87;;;8.80;;
5345;SDS011;2695;49.444;11.054;2023-01-19T03:01:28;17.17;;;10.30;;
5345;SDS011;2695;49.444;11.054;2023-01-19T03:04:14;16.00;;;9.60;;
5345;SDS011;2695;49.444;11.054;2023-01-19T03:06:50;16.27;;;9.83;;
5345;SDS011;2695;49.444;11.054;2023-01-19T03:09:26;15.80;;;9.00;;
5345;SDS011;2695;49.444;11.054;2023-01-19T03:12:00;16.53;;;9.17;;
5345;SDS011;2695;49.444;11.054;2023-01-19T03:14:41;12.47;;;9.10;;
5345;SDS011;2695;49.444;11.054;2023-01-19T03:17:14;17.07;;;8.43;;
5345;SDS011;2695;49.444;11.054;2023-01-19T03:19:45;17.60;;;9.87;;
5345;SDS011;2695;49.444;11.054;2023-01-19T03:22:16;18.30;;;9.63;;
5345;SDS011;2695;49.444;11.054;2023-01-19T03:24:48;15.10;;;8.17;;
5345;SDS011;2695;49.444;11.054;2023-01-19T03:27:18;19.10;;;9.73;;
5345;SDS011;2695;49.444;11.054;2023-01-19T03:29:54;15.10;;;8.90;;
5345;SDS011;2695;49.444;11.054;2023-01-19T03:32:29;18.37;;;9.40;;
5345;SDS011;2695;49.444;11.054;2023-01-19T03:35:01;19.50;;;9.50;;
5345;SDS011;2695;49.444;11.054;2023-01-19T03:37:33;15.40;;;8.50;;
5345;SDS011;2695;49.444;11.054;2023-01-19T03:40:04;14.67;;;9.20;;
5345;SDS011;2695;49.444;11.054;2023-01-19T03:42:34;16.80;;;10.07;;
5345;SDS011;2695;49.444;11.054;2023-01-19T03:45:04;17.80;;;9.00;;
5345;SDS011;2695;49.444;11.054;2023-01-19T03:47:33;15.73;;;9.67;;
5345;SDS011;2695;49.444;11.054;2023-01-19T03:50:02;14.13;;;8.77;;
5345;SDS011;2695;49.444;11.054;2023-01-19T03:52:34;15.07;;;9.63;;
5345;SDS011;2695;49.444;11.054;2023-01-19T03:55:03;16.97;;;10.53;;
5345;SDS011;2695;49.444;11.054;2023-01-19T03:57:32;16.07;;;9.40;;
5345;SDS011;2695;49.444;11.054;2023-01-19T03:59:59;13.70;;;8.90;;
5345;SDS011;2695;49.444;11.054;2023-01-19T04:02:29;17.17;;;9.37;;
5345;SDS011;2695;49.444;11.054;2023-01-19T04:04:57;18.10;;;10.27;;
5345;SDS011;2695;49.444;11.054;2023-01-19T04:07:24;17.07;;;9.83;;
5345;SDS011;2695;49.444;11.054;2023-01-19T04:09:53;20.53;;;9.70;;
5345;SDS011;2695;49.444;11.054;2023-01-19T04:12:21;18.07;;;10.17;;
5345;SDS011;2695;49.444;11.054;2023-01-19T04:14:49;14.30;;;9.87;;
5345;SDS011;2695;49.444;11.054;2023-01-19T04:17:17;15.87;;;9.93;;
5345;SDS011;2695;49.444;11.054;2023-01-19T04:19:46;16.23;;;9.90;;
5345;SDS011;2695;49.444;11.054;2023-01-19T04:22:14;18.33;;;10.67;;
5345;SDS011;2695;49.444;11.054;2023-01-19T04:24:42;14.73;;;9.40;;
5345;SDS011;2695;49.444;11.054;2023-01-19T04:27:10;16.83;;;10.20;;
5345;SDS011;2695;49.444;11.054;2023-01-19T04:29:40;23.10;;;12.23;;
5345;SDS011;2695;49.444;11.054;2023-01-19T04:32:08;19.67;;;10.03;;
5345;SDS011;2695;49.444;11.054;2023-01-19T04:34:36;20.03;;;10.40;;
5345;SDS011;2695;49.444;11.054;2023-01-19T04:37:05;13.80;;;9.70;;
5345;SDS011;2695;49.444;11.054;2023-01-19T04:39:33;16.57;;;9.57;;
5345;SDS011;2695;49.444;11.054;2023-01-19T04:42:01;17.20;;;10.80;;
5345;SDS011;2695;49.444;11.054;2023-01-19T04:44:29;12.93;;;9.10;;
5345;SDS011;2695;49.444;11.054;2023-01-19T04:46:57;24.73;;;11.20;;
5345;SDS011;2695;49.444;11.054;2023-01-19T04:49:25;20.53;;;10.47;;
5345;SDS011;2695;49.444;11.054;2023-01-19T04:51:53;24.53;;;10.10;;
5345;SDS011;2695;49.444;11.054;2023-01-19T04:54:22;18.03;;;10.23;;
5345;SDS011;2695;49.444;11.054;2023-01-19T04:56:50;15.70;;;9.53;;
5345;SDS011;2695;49.444;11.054;2023-01-19T04:59:18;18.97;;;11.13;;
5345;SDS011;2695;49.444;11.054;2023-01-19T05:01:46;13.90;;;8.63;;
5345;SDS011;2695;49.444;11.054;2023-01-19T05:04:14;16.67;;;9.33;;
5345;SDS011;2695;49.444;11.054;2023-01-19T05:06:42;17.27;;;10.20;;
5345;SDS011;2695;49.444;11.054;2023-01-19T05:09:10;16.70;;;10.10;;
5345;SDS011;2695;49.444;11.054;2023-01-19T05:11:41;23.93;;;11.97;;
5345;SDS011;2695;49.444;11.054;2023-01-19T05:14:09;18.27;;;10.90;;
5345;SDS011;2695;49.444;11.054;2023-01-19T05:16:37;17.63;;;10.60;;
5345;SDS011;2695;49.444;11.054;2023-01-19T05:19:05;21.27;;;10.87;;
5345;SDS011;2695;49.444;11.054;2023-01-19T05:21:33;19.00;;;11.23;;
5345;SDS011;2695;49.444;11.054;2023-01-19T05:24:01;18.43;;;9.50;;
5345;SDS011;2695;49.444;11.054;2023-01-19T05:26:29;20.73;;;10.63;;
5345;SDS011;2695;49.444;11.054;2023-01-19T05:28:58;20.73;;;10.77;;
5345;SDS011;2695;49.444;11.054;2023-01-19T05:31:26;16.50;;;10.17;;
5345;SDS011;2695;49.444;11.054;2023-01-19T05:33:54;19.93;;;10.70;;
5345;SDS011;2695;49.444;11.054;2023-01-19T05:36:22;19.17;;;10.30;;
5345;SDS011;2695;49.444;11.054;2023-01-19T05:38:50;17.30;;;9.60;;
5345;SDS011;2695;49.444;11.054;2023-01-19T05:41:17;16.53;;;9.93;;
5345;SDS011;2695;49.444;11.054;2023-01-19T05:43:45;17.43;;;9.80;;
5345;SDS011;2695;49.444;11.054;2023-01-19T05:46:14;17.80;;;10.77;;
5345;SDS011;2695;49.444;11.054;2023-01-19T05:48:42;21.20;;;10.80;;
5345;SDS011;2695;49.444;11.054;2023-01-19T05:51:11;14.40;;;9.60;;
5345;SDS011;2695;49.444;11.054;2023-01-19T05:53:40;14.50;;;9.43;;
5345;SDS011;2695;49.444;11.054;2023-01-19T05:56:08;21.10;;;11.50;;
5345;SDS011;2695;49.444;11.054;2023-01-19T05:58:37;17.30;;;10.10;;
5345;SDS011;2695;49.444;11.054;2023-01-19T06:01:06;19.57;;;10.83;;
5345;SDS011;2695;49.444;11.054;2023-01-19T06:03:37;16.40;;;9.90;;
5345;SDS011;2695;49.444;11.054;2023-01-19T06:06:06;19.87;;;10.80;;
5345;SDS011;2695;49.444;11.054;2023-01-19T06:08:34;22.47;;;11.87;;
5345;SDS011;2695;49.444;11.054;2023-01-19T06:11:04;16.50;;;10.40;;
5345;SDS011;2695;49.444;11.054;2023-01-19T06:13:32;15.20;;;10.00;;
5345;SDS011;2695;49.444;11.054;2023-01-19T06:16:01;17.03;;;9.60;;
5345;SDS011;2695;49.444;11.054;2023-01-19T06:18:29;20.70;;;11.77;;
5345;SDS011;2695;49.444;11.054;2023-01-19T06:21:01;18.53;;;10.00;;
5345;SDS011;2695;49.444;11.054;2023-01-19T06:23:30;19.77;;;11.03;;
5345;SDS011;2695;49.444;11.054;2023-01-19T06:25:59;16.77;;;10.93;;
5345;SDS011;2695;49.444;11.054;2023-01-19T06:28:27;26.60;;;11.50;;
5345;SDS011;2695;49.444;11.054;2023-01-19T06:30:55;20.40;;;11.10;;
5345;SDS011;2695;49.444;11.054;2023-01-19T06:33:23;15.60;;;9.47;;
5345;SDS011;2695;49.444;11.054;2023-01-19T06:35:53;19.10;;;11.67;;
5345;SDS011;2695;49.444;11.054;2023-01-19T06:38:22;16.50;;;9.80;;
5345;SDS011;2695;49.444;11.054;2023-01-19T06:40:52;18.03;;;10.27;;
5345;SDS011;2695;49.444;11.054;2023-01-19T06:43:23;19.00;;;10.97;;
5345;SDS011;2695;49.444;11.054;2023-01-19T06:45:52;16.83;;;10.70;;
5345;SDS011;2695;49.444;11.054;2023-01-19T06:48:22;21.40;;;11.60;;
5345;SDS011;2695;49.444;11.054;2023-01-19T06:50:50;19.23;;;10.70;;
5345;SDS011;2695;49.444;11.054;2023-01-19T06:53:18;20.43;;;11.20;;
5345;SDS011;2695;49.444;11.054;2023-01-19T06:55:48;18.17;;;10.20;;
5345;SDS011;2695;49.444;11.054;2023-01-19T06:58:17;17.10;;;10.63;;
5345;SDS011;2695;49.444;11.054;2023-01-19T07:00:45;18.33;;;11.60;;
5345;SDS011;2695;49.444;11.054;2023-01-19T07:03:17;13.90;;;9.77;;
5345;SDS011;2695;49.444;11.054;2023-01-19T07:05:49;15.60;;;10.50;;
5345;SDS011;2695;49.444;11.054;2023-01-19T07:08:18;17.97;;;10.50;;
5345;SDS011;2695;49.444;11.054;2023-01-19T07:10:46;21.73;;;10.70;;
5345;SDS011;2695;49.444;11.054;2023-01-19T07:13:35;17.00;;;10.17;;
5345;SDS011;2695;49.444;11.054;2023-01-19T07:16:06;17.73;;;11.37;;
5345;SDS011;2695;49.444;11.054;2023-01-19T07:18:35;21.13;;;11.20;;
5345;SDS011;2695;49.444;11.054;2023-01-19T07:21:05;15.67;;;9.80;;
5345;SDS011;2695;49.444;11.054;2023-01-19T07:23:33;24.50;;;11.30;;
5345;SDS011;2695;49.444;11.054;2023-01-19T07:26:03;19.20;;;10.53;;
5345;SDS011;2695;49.444;11.054;2023-01-19T07:28:31;20.37;;;10.97;;
5345;SDS011;2695;49.444;11.054;2023-01-19T07:31:01;18.23;;;10.50;;
5345;SDS011;2695;49.444;11.054;2023-01-19T07:33:29;20.67;;;11.50;;
5345;SDS011;2695;49.444;11.054;2023-01-19T07:35:58;22.67;;;11.73;;
5345;SDS011;2695;49.444;11.054;2023-01-19T07:38:26;16.57;;;9.70;;
5345;SDS011;2695;49.444;11.054;2023-01-19T07:41:00;16.80;;;9.33;;
5345;SDS011;2695;49.444;11.054;2023-01-19T07:43:30;13.40;;;8.80;;
5345;SDS011;2695;49.444;11.054;2023-01-19T07:45:58;14.27;;;9.70;;
5345;SDS011;2695;49.444;11.054;2023-01-19T07:48:29;15.30;;;9.17;;
5345;SDS011;2695;49.444;11.054;2023-01-19T07:50:58;15.67;;;8.87;;
5345;SDS011;2695;49.444;11.054;2023-01-19T07:53:27;16.40;;;9.30;;
5345;SDS011;2695;49.444;11.054;2023-01-19T07:55:55;15.40;;;8.80;;
5345;SDS011;2695;49.444;11.054;2023-01-19T07:58:23;16.80;;;9.00;;
5345;SDS011;2695;49.444;11.054;2023-01-19T08:00:52;17.33;;;8.70;;
5345;SDS011;2695;49.444;11.054;2023-01-19T08:03:22;15.23;;;9.30;;
5345;SDS011;2695;49.444;11.054;2023-01-19T08:06:01;16.40;;;9.73;;
5345;SDS011;2695;49.444;11.054;2023-01-19T08:08:30;12.93;;;8.73;;
5345;SDS011;2695;49.444;11.054;2023-01-19T08:10:59;13.87;;;9.87;;
5345;SDS011;2695;49.444;11.054;2023-01-19T08:13:28;15.20;;;8.47;;
5345;SDS011;2695;49.444;11.054;2023-01-19T08:15:56;13.43;;;8.30;;
5345;SDS011;2695;49.444;11.054;2023-01-19T08:18:27;14.03;;;8.90;;
5345;SDS011;2695;49.444;11.054;2023-01-19T08:20:57;13.33;;;8.20;;
5345;SDS011;2695;49.444;11.054;2023-01-19T08:23:26;13.87;;;8.40;;
5345;SDS011;2695;49.444;11.054;2023-01-19T08:25:54;14.13;;;8.00;;
5345;SDS011;2695;49.444;11.054;2023-01-19T08:28:25;15.73;;;9.03;;
5345;SDS011;2695;49.444;11.054;2023-01-19T08:30:53;9.50;;;6.90;;
5345;SDS011;2695;49.444;11.054;2023-01-19T08:33:22;10.07;;;7.30;;
5345;SDS011;2695;49.444;11.054;2023-01-19T08:35:52;16.13;;;9.20;;
5345;SDS011;2695;49.444;11.054;2023-01-19T08:38:22;12.07;;;8.20;;
5345;SDS011;2695;49.444;11.054;2023-01-19T08:41:28;12.90;;;7.60;;
5345;SDS011;2695;49.444;11.054;2023-01-19T08:44:01;8.63;;;6.47;;
5345;SDS011;2695;49.444;11.054;2023-01-19T08:46:29;11.10;;;7.10;;
5345;SDS011;2695;49.444;11.054;2023-01-19T08:48:57;16.17;;;7.17;;
5345;SDS011;2695;49.444;11.054;2023-01-19T08:51:26;11.80;;;7.97;;
5345;SDS011;2695;49.444;11.054;2023-01-19T08:53:54;18.50;;;7.50;;
5345;SDS011;2695;49.444;11.054;2023-01-19T08:56:23;10.13;;;6.67;;
5345;SDS011;2695;49.444;11.054;2023-01-19T08:58:51;10.37;;;7.23;;
5345;SDS011;2695;49.444;11.054;2023-01-19T09:01:34;10.63;;;6.63;;
5345;SDS011;2695;49.444;11.054;2023-01-19T09:04:04;9.57;;;6.47;;
5345;SDS011;2695;49.444;11.054;2023-01-19T09:06:34;9.27;;;6.73;;
5345;SDS011;2695;49.444;11.054;2023-01-19T09:09:02;8.60;;;6.80;;
5345;SDS011;2695;49.444;11.054;2023-01-19T09:11:30;7.53;;;5.13;;
5345;SDS011;2695;49.444;11.054;2023-01-19T09:14:00;8.70;;;6.67;;
5345;SDS011;2695;49.444;11.054;2023-01-19T09:16:29;13.60;;;8.27;;
5345;SDS011;2695;49.444;11.054;2023-01-19T09:18:57;10.77;;;6.20;;
5345;SDS011;2695;49.444;11.054;2023-01-19T09:21:25;13.13;;;6.50;;
5345;SDS011;2695;49.444;11.054;2023-01-19T09:23:55;10.40;;;5.70;;
5345;SDS011;2695;49.444;11.054;2023-01-19T09:26:23;8.23;;;5.60;;
5345;SDS011;2695;49.444;11.054;2023-01-19T09:28:51;7.90;;;5.50;;
5345;SDS011;2695;49.444;11.054;2023-01-19T09:31:19;7.47;;;5.17;;
5345;SDS011;2695;49.444;11.054;2023-01-19T09:33:47;7.63;;;6.00;;
5345;SDS011;2695;49.444;11.054;2023-01-19T09:36:15;11.10;;;5.43;;
5345;SDS011;2695;49.444;11.054;2023-01-19T09:38:43;5.90;;;4.50;;
5345;SDS011;2695;49.444;11.054;2023-01-19T09:41:15;6.13;;;5.07;;
5345;SDS011;2695;49.444;11.054;2023-01-19T09:43:47;9.43;;;4.60;;
5345;SDS011;2695;49.444;11.054;2023-01-19T09:46:20;10.17;;;5.90;;
5345;SDS011;2695;49.444;11.054;2023-01-19T09:48:54;10.30;;;5.30;;
5345;SDS011;2695;49.444;11.054;2023-01-19T09:51:24;8.40;;;4.90;;
5345;SDS011;2695;49.444;11.054;2023-01-19T09:53:54;8.73;;;5.60;;
5345;SDS011;2695;49.444;11.054;2023-01-19T09:56:30;7.93;;;5.17;;
5345;SDS011;2695;49.444;11.054;2023-01-19T09:58:59;5.07;;;4.00;;
5345;SDS011;2695;49.444;11.054;2023-01-19T10:04:30;9.33;;;5.30;;
5345;SDS011;2695;49.444;11.054;2023-01-19T10:07:20;7.50;;;5.20;;
5345;SDS011;2695;49.444;11.054;2023-01-19T10:10:02;8.60;;;5.80;;
5345;SDS011;2695;49.444;11.054;2023-01-19T10:12:42;10.90;;;5.47;;
5345;SDS011;2695;49.444;11.054;2023-01-19T10:15:19;7.30;;;5.23;;
5345;SDS011;2695;49.444;11.054;2023-01-19T10:18:03;8.70;;;4.60;;
5345;SDS011;2695;49.444;11.054;2023-01-19T10:20:44;13.60;;;5.20;;
5345;SDS011;2695;49.444;11.054;2023-01-19T10:23:18;7.90;;;4.50;;
5345;SDS011;2695;49.444;11.054;2023-01-19T10:25:53;8.20;;;5.40;;
5345;SDS011;2695;49.444;11.054;2023-01-19T10:28:25;6.83;;;4.60;;
5345;SDS011;2695;49.444;11.054;2023-01-19T10:30:54;8.30;;;4.97;;
5345;SDS011;2695;49.444;11.054;2023-01-19T10:33:22;12.03;;;5.20;;
5345;SDS011;2695;49.444;11.054;2023-01-19T10:35:51;8.43;;;5.53;;
5345;SDS011;2695;49.444;11.054;2023-01-19T10:38:19;8.73;;;4.90;;
5345;SDS011;2695;49.444;11.054;2023-01-19T10:40:49;10.00;;;5.40;;
5345;SDS011;2695;49.444;11.054;2023-01-19T10:43:37;7.97;;;5.00;;
5345;SDS011;2695;49.444;11.054;2023-01-19T10:46:07;11.70;;;5.23;;
5345;SDS011;2695;49.444;11.054;2023-01-19T10:48:44;14.63;;;4.90;;
5345;SDS011;2695;49.444;11.054;2023-01-19T10:51:16;7.13;;;4.00;;
5345;SDS011;2695;49.444;11.054;2023-01-19T10:53:52;9.10;;;4.87;;
5345;SDS011;2695;49.444;11.054;2023-01-19T10:56:23;10.00;;;4.80;;
5345;SDS011;2695;49.444;11.054;2023-01-19T10:58:55;5.63;;;3.97;;
5345;SDS011;2695;49.444;11.054;2023-01-19T11:01:25;6.37;;;4.33;;
5345;SDS011;2695;49.444;11.054;2023-01-19T11:03:56;9.90;;;4.13;;
5345;SDS011;2695;49.444;11.054;2023-01-19T11:06:31;5.87;;;3.90;;
5345;SDS011;2695;49.444;11.054;2023-01-19T11:09:11;6.20;;;4.20;;
5345;SDS011;2695;49.444;11.054;2023-01-19T11:11:47;4.63;;;3.67;;
5345;SDS011;2695;49.444;11.054;2023-01-19T11:14:19;8.77;;;3.77;;
5345;SDS011;2695;49.444;11.054;2023-01-19T11:16:52;6.43;;;3.90;;
5345;SDS011;2695;49.444;11.054;2023-01-19T11:19:24;8.90;;;4.20;;
5345;SDS011;2695;49.444;11.054;2023-01-19T11:22:06;4.53;;;4.03;;
5345;SDS011;2695;49.444;11.054;2023-01-19T11:24:41;11.77;;;3.93;;
5345;SDS011;2695;49.444;11.054;2023-01-19T11:27:10;6.27;;;3.70;;
5345;SDS011;2695;49.444;11.054;2023-01-19T11:29:47;6.47;;;3.80;;
5345;SDS011;2695;49.444;11.054;2023-01-19T11:32:18;7.67;;;3.43;;
5345;SDS011;2695;49.444;11.054;2023-01-19T11:34:48;9.60;;;4.60;;
5345;SDS011;2695;49.444;11.054;2023-01-19T11:37:29;10.77;;;3.67;;
5345;SDS011;2695;49.444;11.054;2023-01-19T11:40:00;17.63;;;5.30;;
5345;SDS011;2695;49.444;11.054;2023-01-19T11:42:32;12.70;;;4.67;;
5345;SDS011;2695;49.444;11.054;2023-01-19T11:45:10;9.50;;;4.03;;
5345;SDS011;2695;49.444;11.054;2023-01-19T11:47:42;9.67;;;4.20;;
5345;SDS011;2695;49.444;11.054;2023-01-19T11:50:12;6.57;;;3.70;;
5345;SDS011;2695;49.444;11.054;2023-01-19T11:52:49;5.93;;;3.47;;
5345;SDS011;2695;49.444;11.054;2023-01-19T11:55:23;5.37;;;3.30;;
5345;SDS011;2695;49.444;11.054;2023-01-19T11:57:59;12.00;;;4.03;;
5345;SDS011;2695;49.444;11.054;2023-01-19T12:00:35;5.70;;;3.20;;
5345;SDS011;2695;49.444;11.054;2023-01-19T12:03:09;6.20;;;3.63;;
5345;SDS011;2695;49.444;11.054;2023-01-19T12:05:45;4.53;;;3.60;;
5345;SDS011;2695;49.444;11.054;2023-01-19T12:08:17;6.00;;;3.93;;
5345;SDS011;2695;49.444;11.054;2023-01-19T12:10:49;6.83;;;3.33;;
5345;SDS011;2695;49.444;11.054;2023-01-19T12:13:20;7.40;;;3.47;;
5345;SDS011;2695;49.444;11.054;2023-01-19T12:15:51;5.67;;;3.37;;
5345;SDS011;2695;49.444;11.054;2023-01-19T12:18:24;4.00;;;2.77;;
5345;SDS011;2695;49.444;11.054;2023-01-19T12:20:56;8.20;;;4.00;;
5345;SDS011;2695;49.444;11.054;2023-01-19T12:23:30;6.80;;;3.20;;
5345;SDS011;2695;49.444;11.054;2023-01-19T12:26:07;4.43;;;4.00;;
5345;SDS011;2695;49.444;11.054;2023-01-19T12:29:03;8.03;;;4.43;;
5345;SDS011;2695;49.444;11.054;2023-01-19T12:31:35;9.37;;;3.93;;
5345;SDS011;2695;49.444;11.054;2023-01-19T12:37:05;6.57;;;3.20;;
5345;SDS011;2695;49.444;11.054;2023-01-19T12:39:34;6.20;;;3.20;;
5345;SDS011;2695;49.444;11.054;2023-01-19T12:42:16;7.20;;;4.33;;
5345;SDS011;2695;49.444;11.054;2023-01-19T12:44:50;10.70;;;3.60;;
5345;SDS011;2695;49.444;11.054;2023-01-19T12:47:31;4.00;;;3.23;;
5345;SDS011;2695;49.444;11.054;2023-01-19T12:50:03;6.17;;;3.70;;
5345;SDS011;2695;49.444;11.054;2023-01-19T12:52:34;3.80;;;3.20;;
5345;SDS011;2695;49.444;11.054;2023-01-19T12:55:20;8.07;;;3.80;;
5345;SDS011;2695;49.444;11.054;2023-01-19T12:57:52;8.70;;;3.57;;
5345;SDS011;2695;49.444;11.054;2023-01-19T13:00:29;6.90;;;3.87;;
5345;SDS011;2695;49.444;11.054;2023-01-19T13:03:01;4.37;;;3.53;;
5345;SDS011;2695;49.444;11.054;2023-01-19T13:08:18;9.83;;;3.57;;
5345;SDS011;2695;49.444;11.054;2023-01-19T13:17:05;4.27;;;2.90;;
5345;SDS011;2695;49.444;11.054;2023-01-19T13:19:54;4.97;;;3.50;;
5345;SDS011;2695;49.444;11.054;2023-01-19T13:25:48;4.90;;;3.50;;
5345;SDS011;2695;49.444;11.054;2023-01-19T13:28:22;3.90;;;3.23;;
5345;SDS011;2695;49.444;11.054;2023-01-19T13:30:57;4.33;;;3.23;;
5345;SDS011;2695;49.444;11.054;2023-01-19T13:33:29;6.53;;;3.77;;
5345;SDS011;2695;49.444;11.054;2023-01-19T13:36:14;13.90;;;4.90;;
5345;SDS011;2695;49.444;11.054;2023-01-19T13:38:49;6.10;;;3.70;;
5345;SDS011;2695;49.444;11.054;2023-01-19T13:41:22;4.73;;;3.20;;
5345;SDS011;2695;49.444;11.054;2023-01-19T13:43:57;4.47;;;3.20;;
5345;SDS011;2695;49.444;11.054;2023-01-19T13:46:28;5.77;;;3.50;;
5345;SDS011;2695;49.444;11.054;2023-01-19T13:48:59;11.37;;;4.33;;
5345;SDS011;2695;49.444;11.054;2023-01-19T13:51:32;9.97;;;4.50;;
5345;SDS011;2695;49.444;11.054;2023-01-19T13:54:00;10.83;;;4.43;;
5345;SDS011;2695;49.444;11.054;2023-01-19T13:56:32;5.80;;;4.00;;
5345;SDS011;2695;49.444;11.054;2023-01-19T13:59:01;17.60;;;9.23;;
5345;SDS011;2695;49.444;11.054;2023-01-19T14:01:36;9.13;;;4.10;;
5345;SDS011;2695;49.444;11.054;2023-01-19T14:06:54;7.10;;;4.20;;
5345;SDS011;2695;49.444;11.054;2023-01-19T14:09:24;6.30;;;4.10;;
5345;SDS011;2695;49.444;11.054;2023-01-19T14:14:48;8.20;;;3.90;;
5345;SDS011;2695;49.444;11.054;2023-01-19T14:17:23;11.00;;;3.80;;
5345;SDS011;2695;49.444;11.054;2023-01-19T14:19:53;7.47;;;4.30;;
5345;SDS011;2695;49.444;11.054;2023-01-19T14:22:40;7.67;;;4.30;;
5345;SDS011;2695;49.444;11.054;2023-01-19T14:25:26;12.97;;;5.10;;
5345;SDS011;2695;49.444;11.054;2023-01-19T14:30:53;6.67;;;4.10;;
5345;SDS011;2695;49.444;11.054;2023-01-19T14:36:08;7.27;;;4.07;;
5345;SDS011;2695;49.444;11.054;2023-01-19T14:38:38;6.50;;;4.43;;
5345;SDS011;2695;49.444;11.054;2023-01-19T14:41:10;7.00;;;4.20;;
5345;SDS011;2695;49.444;11.054;2023-01-19T14:43:41;7.90;;;3.70;;
5345;SDS011;2695;49.444;11.054;2023-01-19T14:46:13;5.73;;;4.13;;
5345;SDS011;2695;49.444;11.054;2023-01-19T14:48:44;7.83;;;4.30;;
5345;SDS011;2695;49.444;11.054;2023-01-19T14:51:14;8.60;;;4.80;;
5345;SDS011;2695;49.444;11.054;2023-01-19T14:53:47;6.97;;;3.83;;
5345;SDS011;2695;49.444;11.054;2023-01-19T14:56:24;7.03;;;4.57;;
5345;SDS011;2695;49.444;11.054;2023-01-19T14:58:53;12.83;;;3.70;;
5345;SDS011;2695;49.444;11.054;2023-01-19T15:01:22;11.53;;;4.60;;
5345;SDS011;2695;49.444;11.054;2023-01-19T15:03:53;5.33;;;4.57;;
5345;SDS011;2695;49.444;11.054;2023-01-19T15:06:23;8.20;;;4.50;;
5345;SDS011;2695;49.444;11.054;2023-01-19T15:08:54;12.07;;;5.43;;
5345;SDS011;2695;49.444;11.054;2023-01-19T15:11:26;6.47;;;4.20;;
5345;SDS011;2695;49.444;11.054;2023-01-19T15:13:56;7.40;;;4.63;;
5345;SDS011;2695;49.444;11.054;2023-01-19T15:16:25;7.93;;;4.00;;
5345;SDS011;2695;49.444;11.054;2023-01-19T15:18:55;6.57;;;3.60;;
5345;SDS011;2695;49.444;11.054;2023-01-19T15:21:23;6.40;;;5.10;;
5345;SDS011;2695;49.444;11.054;2023-01-19T15:23:56;6.07;;;4.23;;
5345;SDS011;2695;49.444;11.054;2023-01-19T15:26:25;8.60;;;5.20;;
5345;SDS011;2695;49.444;11.054;2023-01-19T15:28:54;8.77;;;4.27;;
5345;SDS011;2695;49.444;11.054;2023-01-19T15:31:23;6.33;;;4.20;;
5345;SDS011;2695;49.444;11.054;2023-01-19T15:33:53;10.77;;;3.93;;
5345;SDS011;2695;49.444;11.054;2023-01-19T15:36:21;4.87;;;4.10;;
5345;SDS011;2695;49.444;11.054;2023-01-19T15:38:50;8.20;;;4.80;;
5345;SDS011;2695;49.444;11.054;2023-01-19T15:41:21;6.90;;;3.80;;
5345;SDS011;2695;49.444;11.054;2023-01-19T15:43:55;11.57;;;4.73;;